sensor_id;sensor_type;location;lat;lon;timestamp;P1;durP1;ratioP1;P2;durP2;ratioP2
54855;SDS011;40748;53.168;5.800;2022-08-07T00:01:43;12.40;;;8.20;;
54855;SDS011;40748;53.168;5.800;2022-08-07T00:04:13;12.40;;;8.20;;
54855;SDS011;40748;53.168;5.800;2022-08-07T00:06:43;12.40;;;8.20;;
54855;SDS011;40748;53.168;5.800;2022-08-07T00:09:13;12.40;;;8.20;;
54855;SDS011;40748;53.168;5.800;2022-08-07T00:11:43;14.60;;;8.80;;
54855;SDS011;40748;53.168;5.800;2022-08-07T00:14:13;14.60;;;8.80;;
54855;SDS011;40748;53.168;5.800;2022-08-07T00:16:43;14.60;;;8.80;;
54855;SDS011;40748;53.168;5.800;2022-08-07T00:19:13;14.60;;;8.80;;
54855;SDS011;40748;53.168;5.800;2022-08-07T00:21:43;13.20;;;8.40;;
54855;SDS011;40748;53.168;5.800;2022-08-07T00:24:13;13.20;;;8.40;;
54855;SDS011;40748;53.168;5.800;2022-08-07T00:26:43;13.20;;;8.40;;
54855;SDS011;40748;53.168;5.800;2022-08-07T00:29:13;13.20;;;8.40;;
54855;SDS011;40748;53.168;5.800;2022-08-07T00:31:43;13.20;;;9.50;;
54855;SDS011;40748;53.168;5.800;2022-08-07T00:34:13;13.20;;;9.50;;
54855;SDS011;40748;53.168;5.800;2022-08-07T00:36:43;13.20;;;9.50;;
54855;SDS011;40748;53.168;5.800;2022-08-07T00:39:13;13.20;;;9.50;;
54855;SDS011;40748;53.168;5.800;2022-08-07T00:41:47;14.20;;;9.80;;
54855;SDS011;40748;53.168;5.800;2022-08-07T00:44:13;14.20;;;9.80;;
54855;SDS011;40748;53.168;5.800;2022-08-07T00:46:43;14.20;;;9.80;;
54855;SDS011;40748;53.168;5.800;2022-08-07T00:49:13;14.20;;;9.80;;
54855;SDS011;40748;53.168;5.800;2022-08-07T00:51:44;12.90;;;9.00;;
54855;SDS011;40748;53.168;5.800;2022-08-07T00:54:13;12.90;;;9.00;;
54855;SDS011;40748;53.168;5.800;2022-08-07T00:56:43;12.90;;;9.00;;
54855;SDS011;40748;53.168;5.800;2022-08-07T00:59:13;12.90;;;9.00;;
54855;SDS011;40748;53.168;5.800;2022-08-07T01:01:43;12.40;;;8.40;;
54855;SDS011;40748;53.168;5.800;2022-08-07T01:04:14;12.40;;;8.40;;
54855;SDS011;40748;53.168;5.800;2022-08-07T01:06:43;12.40;;;8.40;;
54855;SDS011;40748;53.168;5.800;2022-08-07T01:09:13;12.40;;;8.40;;
54855;SDS011;40748;53.168;5.800;2022-08-07T01:11:43;16.90;;;8.80;;
54855;SDS011;40748;53.168;5.800;2022-08-07T01:14:13;16.90;;;8.80;;
54855;SDS011;40748;53.168;5.800;2022-08-07T01:16:43;16.90;;;8.80;;
54855;SDS011;40748;53.168;5.800;2022-08-07T01:19:14;16.90;;;8.80;;
54855;SDS011;40748;53.168;5.800;2022-08-07T01:21:44;14.70;;;9.10;;
54855;SDS011;40748;53.168;5.800;2022-08-07T01:24:14;14.70;;;9.10;;
54855;SDS011;40748;53.168;5.800;2022-08-07T01:26:43;14.70;;;9.10;;
54855;SDS011;40748;53.168;5.800;2022-08-07T01:29:13;14.70;;;9.10;;
54855;SDS011;40748;53.168;5.800;2022-08-07T01:31:43;15.00;;;8.30;;
54855;SDS011;40748;53.168;5.800;2022-08-07T01:34:13;15.00;;;8.30;;
54855;SDS011;40748;53.168;5.800;2022-08-07T01:36:44;15.00;;;8.30;;
54855;SDS011;40748;53.168;5.800;2022-08-07T01:39:13;15.00;;;8.30;;
54855;SDS011;40748;53.168;5.800;2022-08-07T01:41:43;12.80;;;8.30;;
54855;SDS011;40748;53.168;5.800;2022-08-07T01:44:13;12.80;;;8.30;;
54855;SDS011;40748;53.168;5.800;2022-08-07T01:46:43;12.80;;;8.30;;
54855;SDS011;40748;53.168;5.800;2022-08-07T01:49:13;12.80;;;8.30;;
54855;SDS011;40748;53.168;5.800;2022-08-07T01:51:45;14.00;;;8.30;;
54855;SDS011;40748;53.168;5.800;2022-08-07T01:56:47;14.00;;;8.30;;
54855;SDS011;40748;53.168;5.800;2022-08-07T01:59:18;14.00;;;8.30;;
54855;SDS011;40748;53.168;5.800;2022-08-07T02:01:47;12.90;;;8.00;;
54855;SDS011;40748;53.168;5.800;2022-08-07T02:06:44;12.90;;;8.00;;
54855;SDS011;40748;53.168;5.800;2022-08-07T02:09:16;12.90;;;8.00;;
54855;SDS011;40748;53.168;5.800;2022-08-07T02:11:45;14.50;;;8.50;;
54855;SDS011;40748;53.168;5.800;2022-08-07T02:14:14;14.50;;;8.50;;
54855;SDS011;40748;53.168;5.800;2022-08-07T02:21:44;15.10;;;8.50;;
54855;SDS011;40748;53.168;5.800;2022-08-07T02:24:14;15.10;;;8.50;;
54855;SDS011;40748;53.168;5.800;2022-08-07T02:26:43;15.10;;;8.50;;
54855;SDS011;40748;53.168;5.800;2022-08-07T02:29:13;15.10;;;8.50;;
54855;SDS011;40748;53.168;5.800;2022-08-07T02:31:44;12.90;;;8.50;;
54855;SDS011;40748;53.168;5.800;2022-08-07T02:39:14;12.90;;;8.50;;
54855;SDS011;40748;53.168;5.800;2022-08-07T02:41:43;15.00;;;8.60;;
54855;SDS011;40748;53.168;5.800;2022-08-07T02:44:14;15.00;;;8.60;;
54855;SDS011;40748;53.168;5.800;2022-08-07T02:46:45;15.00;;;8.60;;
54855;SDS011;40748;53.168;5.800;2022-08-07T02:51:44;13.60;;;8.80;;
54855;SDS011;40748;53.168;5.800;2022-08-07T02:54:14;13.60;;;8.80;;
54855;SDS011;40748;53.168;5.800;2022-08-07T02:56:45;13.60;;;8.80;;
54855;SDS011;40748;53.168;5.800;2022-08-07T03:01:44;13.80;;;8.80;;
54855;SDS011;40748;53.168;5.800;2022-08-07T03:04:14;13.80;;;8.80;;
54855;SDS011;40748;53.168;5.800;2022-08-07T03:06:46;13.80;;;8.80;;
54855;SDS011;40748;53.168;5.800;2022-08-07T03:11:44;17.20;;;8.50;;
54855;SDS011;40748;53.168;5.800;2022-08-07T03:14:14;17.20;;;8.50;;
54855;SDS011;40748;53.168;5.800;2022-08-07T03:16:44;17.20;;;8.50;;
54855;SDS011;40748;53.168;5.800;2022-08-07T03:19:13;17.20;;;8.50;;
54855;SDS011;40748;53.168;5.800;2022-08-07T03:21:43;16.90;;;9.50;;
54855;SDS011;40748;53.168;5.800;2022-08-07T03:24:13;16.90;;;9.50;;
54855;SDS011;40748;53.168;5.800;2022-08-07T03:26:44;16.90;;;9.50;;
54855;SDS011;40748;53.168;5.800;2022-08-07T03:29:13;16.90;;;9.50;;
54855;SDS011;40748;53.168;5.800;2022-08-07T03:31:45;15.70;;;8.60;;
54855;SDS011;40748;53.168;5.800;2022-08-07T03:34:15;15.70;;;8.60;;
54855;SDS011;40748;53.168;5.800;2022-08-07T03:39:16;15.70;;;8.60;;
54855;SDS011;40748;53.168;5.800;2022-08-07T03:41:43;15.10;;;8.50;;
54855;SDS011;40748;53.168;5.800;2022-08-07T03:44:14;15.10;;;8.50;;
54855;SDS011;40748;53.168;5.800;2022-08-07T03:46:43;15.10;;;8.50;;
54855;SDS011;40748;53.168;5.800;2022-08-07T03:49:13;15.10;;;8.50;;
54855;SDS011;40748;53.168;5.800;2022-08-07T03:51:43;17.70;;;9.30;;
54855;SDS011;40748;53.168;5.800;2022-08-07T03:54:13;17.70;;;9.30;;
54855;SDS011;40748;53.168;5.800;2022-08-07T03:56:45;17.70;;;9.30;;
54855;SDS011;40748;53.168;5.800;2022-08-07T03:59:13;17.70;;;9.30;;
54855;SDS011;40748;53.168;5.800;2022-08-07T04:01:44;14.00;;;9.30;;
54855;SDS011;40748;53.168;5.800;2022-08-07T04:04:15;14.00;;;9.30;;
54855;SDS011;40748;53.168;5.800;2022-08-07T04:06:44;14.00;;;9.30;;
54855;SDS011;40748;53.168;5.800;2022-08-07T04:09:14;14.00;;;9.30;;
54855;SDS011;40748;53.168;5.800;2022-08-07T04:11:44;13.90;;;9.10;;
54855;SDS011;40748;53.168;5.800;2022-08-07T04:14:14;13.90;;;9.10;;
54855;SDS011;40748;53.168;5.800;2022-08-07T04:16:43;13.90;;;9.10;;
54855;SDS011;40748;53.168;5.800;2022-08-07T04:19:14;13.90;;;9.10;;
54855;SDS011;40748;53.168;5.800;2022-08-07T04:21:43;14.80;;;9.10;;
54855;SDS011;40748;53.168;5.800;2022-08-07T04:24:13;14.80;;;9.10;;
54855;SDS011;40748;53.168;5.800;2022-08-07T04:26:43;14.80;;;9.10;;
54855;SDS011;40748;53.168;5.800;2022-08-07T04:29:13;14.80;;;9.10;;
54855;SDS011;40748;53.168;5.800;2022-08-07T04:31:44;13.60;;;8.40;;
54855;SDS011;40748;53.168;5.800;2022-08-07T04:39:13;13.60;;;8.40;;
54855;SDS011;40748;53.168;5.800;2022-08-07T04:41:43;15.70;;;9.20;;
54855;SDS011;40748;53.168;5.800;2022-08-07T04:44:14;15.70;;;9.20;;
54855;SDS011;40748;53.168;5.800;2022-08-07T04:46:49;15.70;;;9.20;;
54855;SDS011;40748;53.168;5.800;2022-08-07T04:49:17;15.70;;;9.20;;
54855;SDS011;40748;53.168;5.800;2022-08-07T04:51:50;15.30;;;9.10;;
54855;SDS011;40748;53.168;5.800;2022-08-07T04:54:19;15.30;;;9.10;;
54855;SDS011;40748;53.168;5.800;2022-08-07T04:56:48;15.30;;;9.10;;
54855;SDS011;40748;53.168;5.800;2022-08-07T04:59:19;15.30;;;9.10;;
54855;SDS011;40748;53.168;5.800;2022-08-07T05:04:15;13.40;;;8.90;;
54855;SDS011;40748;53.168;5.800;2022-08-07T05:06:51;13.40;;;8.90;;
54855;SDS011;40748;53.168;5.800;2022-08-07T05:09:21;13.40;;;8.90;;
54855;SDS011;40748;53.168;5.800;2022-08-07T05:11:47;15.60;;;8.30;;
54855;SDS011;40748;53.168;5.800;2022-08-07T05:14:18;15.60;;;8.30;;
54855;SDS011;40748;53.168;5.800;2022-08-07T05:16:44;15.60;;;8.30;;
54855;SDS011;40748;53.168;5.800;2022-08-07T05:19:16;15.60;;;8.30;;
54855;SDS011;40748;53.168;5.800;2022-08-07T05:24:15;12.50;;;7.90;;
54855;SDS011;40748;53.168;5.800;2022-08-07T05:26:46;12.50;;;7.90;;
54855;SDS011;40748;53.168;5.800;2022-08-07T05:29:15;12.50;;;7.90;;
54855;SDS011;40748;53.168;5.800;2022-08-07T05:31:45;12.50;;;7.50;;
54855;SDS011;40748;53.168;5.800;2022-08-07T05:34:15;12.50;;;7.50;;
54855;SDS011;40748;53.168;5.800;2022-08-07T05:36:46;12.50;;;7.50;;
54855;SDS011;40748;53.168;5.800;2022-08-07T05:39:14;12.50;;;7.50;;
54855;SDS011;40748;53.168;5.800;2022-08-07T05:41:43;14.90;;;7.50;;
54855;SDS011;40748;53.168;5.800;2022-08-07T05:44:16;14.90;;;7.50;;
54855;SDS011;40748;53.168;5.800;2022-08-07T05:46:45;14.90;;;7.50;;
54855;SDS011;40748;53.168;5.800;2022-08-07T05:49:14;14.90;;;7.50;;
54855;SDS011;40748;53.168;5.800;2022-08-07T05:51:45;14.30;;;7.90;;
54855;SDS011;40748;53.168;5.800;2022-08-07T05:54:15;14.30;;;7.90;;
54855;SDS011;40748;53.168;5.800;2022-08-07T05:56:45;14.30;;;7.90;;
54855;SDS011;40748;53.168;5.800;2022-08-07T05:59:16;14.30;;;7.90;;
54855;SDS011;40748;53.168;5.800;2022-08-07T06:01:44;12.20;;;7.60;;
54855;SDS011;40748;53.168;5.800;2022-08-07T06:04:14;12.20;;;7.60;;
54855;SDS011;40748;53.168;5.800;2022-08-07T06:06:43;12.20;;;7.60;;
54855;SDS011;40748;53.168;5.800;2022-08-07T06:09:14;12.20;;;7.60;;
54855;SDS011;40748;53.168;5.800;2022-08-07T06:11:43;12.00;;;7.30;;
54855;SDS011;40748;53.168;5.800;2022-08-07T06:14:13;12.00;;;7.30;;
54855;SDS011;40748;53.168;5.800;2022-08-07T06:16:45;12.00;;;7.30;;
54855;SDS011;40748;53.168;5.800;2022-08-07T06:19:13;12.00;;;7.30;;
54855;SDS011;40748;53.168;5.800;2022-08-07T06:21:44;14.10;;;7.70;;
54855;SDS011;40748;53.168;5.800;2022-08-07T06:24:13;14.10;;;7.70;;
54855;SDS011;40748;53.168;5.800;2022-08-07T06:26:43;14.10;;;7.70;;
54855;SDS011;40748;53.168;5.800;2022-08-07T06:29:13;14.10;;;7.70;;
54855;SDS011;40748;53.168;5.800;2022-08-07T06:31:43;11.80;;;7.10;;
54855;SDS011;40748;53.168;5.800;2022-08-07T06:34:13;11.80;;;7.10;;
54855;SDS011;40748;53.168;5.800;2022-08-07T06:36:43;11.80;;;7.10;;
54855;SDS011;40748;53.168;5.800;2022-08-07T06:39:13;11.80;;;7.10;;
54855;SDS011;40748;53.168;5.800;2022-08-07T06:41:47;11.80;;;6.30;;
54855;SDS011;40748;53.168;5.800;2022-08-07T06:44:14;11.80;;;6.30;;
54855;SDS011;40748;53.168;5.800;2022-08-07T06:46:43;11.80;;;6.30;;
54855;SDS011;40748;53.168;5.800;2022-08-07T06:49:13;11.80;;;6.30;;
54855;SDS011;40748;53.168;5.800;2022-08-07T06:51:44;12.80;;;6.70;;
54855;SDS011;40748;53.168;5.800;2022-08-07T06:54:14;12.80;;;6.70;;
54855;SDS011;40748;53.168;5.800;2022-08-07T06:56:43;12.80;;;6.70;;
54855;SDS011;40748;53.168;5.800;2022-08-07T06:59:15;12.80;;;6.70;;
54855;SDS011;40748;53.168;5.800;2022-08-07T07:01:44;9.50;;;5.30;;
54855;SDS011;40748;53.168;5.800;2022-08-07T07:04:13;9.50;;;5.30;;
54855;SDS011;40748;53.168;5.800;2022-08-07T07:06:43;9.50;;;5.30;;
54855;SDS011;40748;53.168;5.800;2022-08-07T07:09:16;9.50;;;5.30;;
54855;SDS011;40748;53.168;5.800;2022-08-07T07:12:02;9.10;;;5.10;;
54855;SDS011;40748;53.168;5.800;2022-08-07T07:14:14;9.10;;;5.10;;
54855;SDS011;40748;53.168;5.800;2022-08-07T07:16:44;9.10;;;5.10;;
54855;SDS011;40748;53.168;5.800;2022-08-07T07:19:14;9.10;;;5.10;;
54855;SDS011;40748;53.168;5.800;2022-08-07T07:21:44;8.10;;;4.90;;
54855;SDS011;40748;53.168;5.800;2022-08-07T07:24:13;8.10;;;4.90;;
54855;SDS011;40748;53.168;5.800;2022-08-07T07:26:45;8.10;;;4.90;;
54855;SDS011;40748;53.168;5.800;2022-08-07T07:29:14;8.10;;;4.90;;
54855;SDS011;40748;53.168;5.800;2022-08-07T07:31:47;5.60;;;2.80;;
54855;SDS011;40748;53.168;5.800;2022-08-07T07:34:17;5.60;;;2.80;;
54855;SDS011;40748;53.168;5.800;2022-08-07T07:36:44;5.60;;;2.80;;
54855;SDS011;40748;53.168;5.800;2022-08-07T07:39:15;5.60;;;2.80;;
54855;SDS011;40748;53.168;5.800;2022-08-07T07:41:47;9.90;;;4.70;;
54855;SDS011;40748;53.168;5.800;2022-08-07T07:44:15;9.90;;;4.70;;
54855;SDS011;40748;53.168;5.800;2022-08-07T07:46:44;9.90;;;4.70;;
54855;SDS011;40748;53.168;5.800;2022-08-07T07:49:16;9.90;;;4.70;;
54855;SDS011;40748;53.168;5.800;2022-08-07T07:51:46;8.50;;;3.80;;
54855;SDS011;40748;53.168;5.800;2022-08-07T07:54:15;8.50;;;3.80;;
54855;SDS011;40748;53.168;5.800;2022-08-07T07:56:43;8.50;;;3.80;;
54855;SDS011;40748;53.168;5.800;2022-08-07T07:59:14;8.50;;;3.80;;
54855;SDS011;40748;53.168;5.800;2022-08-07T08:01:45;6.90;;;3.30;;
54855;SDS011;40748;53.168;5.800;2022-08-07T08:04:14;6.90;;;3.30;;
54855;SDS011;40748;53.168;5.800;2022-08-07T08:06:45;6.90;;;3.30;;
54855;SDS011;40748;53.168;5.800;2022-08-07T08:09:15;6.90;;;3.30;;
54855;SDS011;40748;53.168;5.800;2022-08-07T08:11:44;7.40;;;3.40;;
54855;SDS011;40748;53.168;5.800;2022-08-07T08:14:15;7.40;;;3.40;;
54855;SDS011;40748;53.168;5.800;2022-08-07T08:16:44;7.40;;;3.40;;
54855;SDS011;40748;53.168;5.800;2022-08-07T08:19:16;7.40;;;3.40;;
54855;SDS011;40748;53.168;5.800;2022-08-07T08:21:46;7.60;;;3.20;;
54855;SDS011;40748;53.168;5.800;2022-08-07T08:24:15;7.60;;;3.20;;
54855;SDS011;40748;53.168;5.800;2022-08-07T08:26:43;7.60;;;3.20;;
54855;SDS011;40748;53.168;5.800;2022-08-07T08:29:15;7.60;;;3.20;;
54855;SDS011;40748;53.168;5.800;2022-08-07T08:31:44;6.90;;;3.00;;
54855;SDS011;40748;53.168;5.800;2022-08-07T08:34:14;6.90;;;3.00;;
54855;SDS011;40748;53.168;5.800;2022-08-07T08:36:44;6.90;;;3.00;;
54855;SDS011;40748;53.168;5.800;2022-08-07T08:39:13;6.90;;;3.00;;
54855;SDS011;40748;53.168;5.800;2022-08-07T08:41:47;6.90;;;3.20;;
54855;SDS011;40748;53.168;5.800;2022-08-07T08:44:16;6.90;;;3.20;;
54855;SDS011;40748;53.168;5.800;2022-08-07T08:46:49;6.90;;;3.20;;
54855;SDS011;40748;53.168;5.800;2022-08-07T08:49:19;6.90;;;3.20;;
54855;SDS011;40748;53.168;5.800;2022-08-07T08:51:53;7.00;;;3.60;;
54855;SDS011;40748;53.168;5.800;2022-08-07T08:54:19;7.00;;;3.60;;
54855;SDS011;40748;53.168;5.800;2022-08-07T08:56:47;7.00;;;3.60;;
54855;SDS011;40748;53.168;5.800;2022-08-07T08:59:19;7.00;;;3.60;;
54855;SDS011;40748;53.168;5.800;2022-08-07T09:01:49;6.10;;;2.90;;
54855;SDS011;40748;53.168;5.800;2022-08-07T09:04:17;6.10;;;2.90;;
54855;SDS011;40748;53.168;5.800;2022-08-07T09:06:52;6.10;;;2.90;;
54855;SDS011;40748;53.168;5.800;2022-08-07T09:09:30;6.10;;;2.90;;
54855;SDS011;40748;53.168;5.800;2022-08-07T09:11:52;6.00;;;2.80;;
54855;SDS011;40748;53.168;5.800;2022-08-07T09:14:17;6.00;;;2.80;;
54855;SDS011;40748;53.168;5.800;2022-08-07T09:16:53;6.00;;;2.80;;
54855;SDS011;40748;53.168;5.800;2022-08-07T09:19:21;6.00;;;2.80;;
54855;SDS011;40748;53.168;5.800;2022-08-07T09:21:51;6.30;;;2.70;;
54855;SDS011;40748;53.168;5.800;2022-08-07T09:24:24;6.30;;;2.70;;
54855;SDS011;40748;53.168;5.800;2022-08-07T09:26:49;6.30;;;2.70;;
54855;SDS011;40748;53.168;5.800;2022-08-07T09:29:20;6.30;;;2.70;;
54855;SDS011;40748;53.168;5.800;2022-08-07T09:31:53;7.00;;;2.90;;
54855;SDS011;40748;53.168;5.800;2022-08-07T09:34:17;7.00;;;2.90;;
54855;SDS011;40748;53.168;5.800;2022-08-07T09:36:54;7.00;;;2.90;;
54855;SDS011;40748;53.168;5.800;2022-08-07T09:39:27;7.00;;;2.90;;
54855;SDS011;40748;53.168;5.800;2022-08-07T09:41:46;6.80;;;2.40;;
54855;SDS011;40748;53.168;5.800;2022-08-07T09:44:20;6.80;;;2.40;;
54855;SDS011;40748;53.168;5.800;2022-08-07T09:46:58;6.80;;;2.40;;
54855;SDS011;40748;53.168;5.800;2022-08-07T09:49:26;6.80;;;2.40;;
54855;SDS011;40748;53.168;5.800;2022-08-07T09:51:54;8.50;;;2.50;;
54855;SDS011;40748;53.168;5.800;2022-08-07T09:54:21;8.50;;;2.50;;
54855;SDS011;40748;53.168;5.800;2022-08-07T09:56:59;8.50;;;2.50;;
54855;SDS011;40748;53.168;5.800;2022-08-07T09:59:28;8.50;;;2.50;;
54855;SDS011;40748;53.168;5.800;2022-08-07T10:01:57;7.60;;;2.40;;
54855;SDS011;40748;53.168;5.800;2022-08-07T10:04:26;7.60;;;2.40;;
54855;SDS011;40748;53.168;5.800;2022-08-07T10:06:55;7.60;;;2.40;;
54855;SDS011;40748;53.168;5.800;2022-08-07T10:09:23;7.60;;;2.40;;
54855;SDS011;40748;53.168;5.800;2022-08-07T10:11:54;7.60;;;2.20;;
54855;SDS011;40748;53.168;5.800;2022-08-07T10:14:25;7.60;;;2.20;;
54855;SDS011;40748;53.168;5.800;2022-08-07T10:17:01;7.60;;;2.20;;
54855;SDS011;40748;53.168;5.800;2022-08-07T10:19:21;7.60;;;2.20;;
54855;SDS011;40748;53.168;5.800;2022-08-07T10:21:55;6.80;;;2.30;;
54855;SDS011;40748;53.168;5.800;2022-08-07T10:24:29;6.80;;;2.30;;
54855;SDS011;40748;53.168;5.800;2022-08-07T10:26:51;6.80;;;2.30;;
54855;SDS011;40748;53.168;5.800;2022-08-07T10:29:30;6.80;;;2.30;;
54855;SDS011;40748;53.168;5.800;2022-08-07T10:31:59;6.70;;;2.40;;
54855;SDS011;40748;53.168;5.800;2022-08-07T10:34:26;6.70;;;2.40;;
54855;SDS011;40748;53.168;5.800;2022-08-07T10:36:55;6.70;;;2.40;;
54855;SDS011;40748;53.168;5.800;2022-08-07T10:39:26;6.70;;;2.40;;
54855;SDS011;40748;53.168;5.800;2022-08-07T10:41:49;5.20;;;1.90;;
54855;SDS011;40748;53.168;5.800;2022-08-07T10:44:18;5.20;;;1.90;;
54855;SDS011;40748;53.168;5.800;2022-08-07T10:46:49;5.20;;;1.90;;
54855;SDS011;40748;53.168;5.800;2022-08-07T10:49:21;5.20;;;1.90;;
54855;SDS011;40748;53.168;5.800;2022-08-07T10:51:52;32.00;;;2.90;;
54855;SDS011;40748;53.168;5.800;2022-08-07T10:54:17;32.00;;;2.90;;
54855;SDS011;40748;53.168;5.800;2022-08-07T10:56:53;32.00;;;2.90;;
54855;SDS011;40748;53.168;5.800;2022-08-07T10:59:19;32.00;;;2.90;;
54855;SDS011;40748;53.168;5.800;2022-08-07T11:01:50;7.00;;;1.80;;
54855;SDS011;40748;53.168;5.800;2022-08-07T11:04:23;7.00;;;1.80;;
54855;SDS011;40748;53.168;5.800;2022-08-07T11:06:50;7.00;;;1.80;;
54855;SDS011;40748;53.168;5.800;2022-08-07T11:09:18;7.00;;;1.80;;
54855;SDS011;40748;53.168;5.800;2022-08-07T11:11:47;5.20;;;1.40;;
54855;SDS011;40748;53.168;5.800;2022-08-07T11:16:47;5.20;;;1.40;;
54855;SDS011;40748;53.168;5.800;2022-08-07T11:19:17;5.20;;;1.40;;
54855;SDS011;40748;53.168;5.800;2022-08-07T11:21:49;5.40;;;1.10;;
54855;SDS011;40748;53.168;5.800;2022-08-07T11:24:19;5.40;;;1.10;;
54855;SDS011;40748;53.168;5.800;2022-08-07T11:26:48;5.40;;;1.10;;
54855;SDS011;40748;53.168;5.800;2022-08-07T11:29:18;5.40;;;1.10;;
54855;SDS011;40748;53.168;5.800;2022-08-07T11:31:54;4.90;;;0.90;;
54855;SDS011;40748;53.168;5.800;2022-08-07T11:34:19;4.90;;;0.90;;
54855;SDS011;40748;53.168;5.800;2022-08-07T11:36:55;4.90;;;0.90;;
54855;SDS011;40748;53.168;5.800;2022-08-07T11:39:24;4.90;;;0.90;;
54855;SDS011;40748;53.168;5.800;2022-08-07T11:41:51;3.90;;;1.00;;
54855;SDS011;40748;53.168;5.800;2022-08-07T11:44:21;3.90;;;1.00;;
54855;SDS011;40748;53.168;5.800;2022-08-07T11:46:52;3.90;;;1.00;;
54855;SDS011;40748;53.168;5.800;2022-08-07T11:49:31;3.90;;;1.00;;
54855;SDS011;40748;53.168;5.800;2022-08-07T11:51:54;8.30;;;1.30;;
54855;SDS011;40748;53.168;5.800;2022-08-07T11:54:26;8.30;;;1.30;;
54855;SDS011;40748;53.168;5.800;2022-08-07T11:56:52;8.30;;;1.30;;
54855;SDS011;40748;53.168;5.800;2022-08-07T11:59:28;8.30;;;1.30;;
54855;SDS011;40748;53.168;5.800;2022-08-07T12:01:50;3.50;;;0.80;;
54855;SDS011;40748;53.168;5.800;2022-08-07T12:04:30;3.50;;;0.80;;
54855;SDS011;40748;53.168;5.800;2022-08-07T12:06:46;3.50;;;0.80;;
54855;SDS011;40748;53.168;5.800;2022-08-07T12:09:18;3.50;;;0.80;;
54855;SDS011;40748;53.168;5.800;2022-08-07T12:11:49;3.30;;;1.00;;
54855;SDS011;40748;53.168;5.800;2022-08-07T12:14:18;3.30;;;1.00;;
54855;SDS011;40748;53.168;5.800;2022-08-07T12:16:46;3.30;;;1.00;;
54855;SDS011;40748;53.168;5.800;2022-08-07T12:19:20;3.30;;;1.00;;
54855;SDS011;40748;53.168;5.800;2022-08-07T12:21:51;5.10;;;1.40;;
54855;SDS011;40748;53.168;5.800;2022-08-07T12:24:19;5.10;;;1.40;;
54855;SDS011;40748;53.168;5.800;2022-08-07T12:26:49;5.10;;;1.40;;
54855;SDS011;40748;53.168;5.800;2022-08-07T12:29:18;5.10;;;1.40;;
54855;SDS011;40748;53.168;5.800;2022-08-07T12:31:48;7.10;;;1.60;;
54855;SDS011;40748;53.168;5.800;2022-08-07T12:34:15;7.10;;;1.60;;
54855;SDS011;40748;53.168;5.800;2022-08-07T12:36:45;7.10;;;1.60;;
54855;SDS011;40748;53.168;5.800;2022-08-07T12:39:15;7.10;;;1.60;;
54855;SDS011;40748;53.168;5.800;2022-08-07T12:41:44;6.20;;;1.70;;
54855;SDS011;40748;53.168;5.800;2022-08-07T12:44:15;6.20;;;1.70;;
54855;SDS011;40748;53.168;5.800;2022-08-07T12:46:56;6.20;;;1.70;;
54855;SDS011;40748;53.168;5.800;2022-08-07T12:49:20;6.20;;;1.70;;
54855;SDS011;40748;53.168;5.800;2022-08-07T12:51:49;7.90;;;2.20;;
54855;SDS011;40748;53.168;5.800;2022-08-07T12:54:19;7.90;;;2.20;;
54855;SDS011;40748;53.168;5.800;2022-08-07T12:56:44;7.90;;;2.20;;
54855;SDS011;40748;53.168;5.800;2022-08-07T12:59:17;7.90;;;2.20;;
54855;SDS011;40748;53.168;5.800;2022-08-07T13:01:57;24.00;;;3.00;;
54855;SDS011;40748;53.168;5.800;2022-08-07T13:04:28;24.00;;;3.00;;
54855;SDS011;40748;53.168;5.800;2022-08-07T13:06:58;24.00;;;3.00;;
54855;SDS011;40748;53.168;5.800;2022-08-07T13:09:21;24.00;;;3.00;;
54855;SDS011;40748;53.168;5.800;2022-08-07T13:11:49;6.60;;;1.90;;
54855;SDS011;40748;53.168;5.800;2022-08-07T13:14:21;6.60;;;1.90;;
54855;SDS011;40748;53.168;5.800;2022-08-07T13:16:47;6.60;;;1.90;;
54855;SDS011;40748;53.168;5.800;2022-08-07T13:19:27;6.60;;;1.90;;
54855;SDS011;40748;53.168;5.800;2022-08-07T13:21:51;6.80;;;2.00;;
54855;SDS011;40748;53.168;5.800;2022-08-07T13:24:20;6.80;;;2.00;;
54855;SDS011;40748;53.168;5.800;2022-08-07T13:26:50;6.80;;;2.00;;
54855;SDS011;40748;53.168;5.800;2022-08-07T13:29:19;6.80;;;2.00;;
54855;SDS011;40748;53.168;5.800;2022-08-07T13:31:48;5.40;;;1.80;;
54855;SDS011;40748;53.168;5.800;2022-08-07T13:34:22;5.40;;;1.80;;
54855;SDS011;40748;53.168;5.800;2022-08-07T13:36:49;5.40;;;1.80;;
54855;SDS011;40748;53.168;5.800;2022-08-07T13:39:24;5.40;;;1.80;;
54855;SDS011;40748;53.168;5.800;2022-08-07T13:41:47;8.20;;;2.40;;
54855;SDS011;40748;53.168;5.800;2022-08-07T13:44:19;8.20;;;2.40;;
54855;SDS011;40748;53.168;5.800;2022-08-07T13:46:45;8.20;;;2.40;;
54855;SDS011;40748;53.168;5.800;2022-08-07T13:51:45;7.40;;;2.80;;
54855;SDS011;40748;53.168;5.800;2022-08-07T13:56:45;7.40;;;2.80;;
54855;SDS011;40748;53.168;5.800;2022-08-07T13:59:19;7.40;;;2.80;;
54855;SDS011;40748;53.168;5.800;2022-08-07T14:01:49;4.90;;;2.40;;
54855;SDS011;40748;53.168;5.800;2022-08-07T14:04:15;4.90;;;2.40;;
54855;SDS011;40748;53.168;5.800;2022-08-07T14:06:46;4.90;;;2.40;;
54855;SDS011;40748;53.168;5.800;2022-08-07T14:09:17;4.90;;;2.40;;
54855;SDS011;40748;53.168;5.800;2022-08-07T14:11:45;8.60;;;2.60;;
54855;SDS011;40748;53.168;5.800;2022-08-07T14:14:14;8.60;;;2.60;;
54855;SDS011;40748;53.168;5.800;2022-08-07T14:16:45;8.60;;;2.60;;
54855;SDS011;40748;53.168;5.800;2022-08-07T14:19:17;8.60;;;2.60;;
54855;SDS011;40748;53.168;5.800;2022-08-07T14:21:46;6.10;;;2.10;;
54855;SDS011;40748;53.168;5.800;2022-08-07T14:24:21;6.10;;;2.10;;
54855;SDS011;40748;53.168;5.800;2022-08-07T14:26:49;6.10;;;2.10;;
54855;SDS011;40748;53.168;5.800;2022-08-07T14:29:17;6.10;;;2.10;;
54855;SDS011;40748;53.168;5.800;2022-08-07T14:31:45;7.10;;;3.00;;
54855;SDS011;40748;53.168;5.800;2022-08-07T14:34:14;7.10;;;3.00;;
54855;SDS011;40748;53.168;5.800;2022-08-07T14:36:44;7.10;;;3.00;;
54855;SDS011;40748;53.168;5.800;2022-08-07T14:39:15;7.10;;;3.00;;
54855;SDS011;40748;53.168;5.800;2022-08-07T14:41:47;8.60;;;3.20;;
54855;SDS011;40748;53.168;5.800;2022-08-07T14:46:45;8.60;;;3.20;;
54855;SDS011;40748;53.168;5.800;2022-08-07T14:49:14;8.60;;;3.20;;
54855;SDS011;40748;53.168;5.800;2022-08-07T14:51:44;9.10;;;3.10;;
54855;SDS011;40748;53.168;5.800;2022-08-07T14:54:15;9.10;;;3.10;;
54855;SDS011;40748;53.168;5.800;2022-08-07T14:56:46;9.10;;;3.10;;
54855;SDS011;40748;53.168;5.800;2022-08-07T14:59:14;9.10;;;3.10;;
54855;SDS011;40748;53.168;5.800;2022-08-07T15:01:44;7.00;;;3.10;;
54855;SDS011;40748;53.168;5.800;2022-08-07T15:04:14;7.00;;;3.10;;
54855;SDS011;40748;53.168;5.800;2022-08-07T15:06:45;7.00;;;3.10;;
54855;SDS011;40748;53.168;5.800;2022-08-07T15:09:15;7.00;;;3.10;;
54855;SDS011;40748;53.168;5.800;2022-08-07T15:11:50;9.70;;;3.60;;
54855;SDS011;40748;53.168;5.800;2022-08-07T15:14:18;9.70;;;3.60;;
54855;SDS011;40748;53.168;5.800;2022-08-07T15:16:45;9.70;;;3.60;;
54855;SDS011;40748;53.168;5.800;2022-08-07T15:19:16;9.70;;;3.60;;
54855;SDS011;40748;53.168;5.800;2022-08-07T15:21:46;9.20;;;3.40;;
54855;SDS011;40748;53.168;5.800;2022-08-07T15:24:17;9.20;;;3.40;;
54855;SDS011;40748;53.168;5.800;2022-08-07T15:26:56;9.20;;;3.40;;
54855;SDS011;40748;53.168;5.800;2022-08-07T15:29:16;9.20;;;3.40;;
54855;SDS011;40748;53.168;5.800;2022-08-07T15:31:47;8.60;;;3.10;;
54855;SDS011;40748;53.168;5.800;2022-08-07T15:34:15;8.60;;;3.10;;
54855;SDS011;40748;53.168;5.800;2022-08-07T15:36:45;8.60;;;3.10;;
54855;SDS011;40748;53.168;5.800;2022-08-07T15:39:14;8.60;;;3.10;;
54855;SDS011;40748;53.168;5.800;2022-08-07T15:41:56;9.20;;;2.90;;